DLH6MB EPKK-EDDM
Flight info
| Callsign | DLH6MB |
|---|---|
| Flight time | 0h 58m |
| Altitude | 32000 |
| Route | ADADO DCT UTEVO DCT VOZ DCT BAVRI/N0405F300 T110 BINGU T108 LANDU LANDU2A |
| Aircraft | A319/M-SDE3FGHIRWY/LB1 |
Departure
| Time | 2026-04-30 19:04 |
|---|---|
| Airport | Kraków John Paul II International Airport (EPKK) |
Arrival
| Time | 2026-04-30 20:02 |
|---|---|
| Airport | Munich Airport (EDDM) |
| Time | Latitude | Longitude | Altitude | Speed | Heading |
|---|---|---|---|---|---|
| 2026-04-30 18:33 | 50.07306 | 19.80007 | 800 ft | 0 kts | 168° |
| 2026-04-30 18:51 | 50.07326 | 19.80000 | 800 ft | 4 kts | 168° |
| 2026-04-30 18:52 | 50.07352 | 19.79992 | 800 ft | 4 kts | 168° |
| 2026-04-30 18:52 | 50.07377 | 19.79982 | 800 ft | 4 kts | 144° |
| 2026-04-30 18:52 | 50.07388 | 19.79953 | 800 ft | 4 kts | 82° |
| 2026-04-30 18:52 | 50.07385 | 19.79928 | 800 ft | 0 kts | 78° |
| 2026-04-30 18:55 | 50.07385 | 19.79931 | 800 ft | 1 kts | 78° |
| 2026-04-30 18:55 | 50.07400 | 19.80039 | 800 ft | 9 kts | 77° |
| 2026-04-30 18:55 | 50.07417 | 19.80153 | 800 ft | 13 kts | 77° |
| 2026-04-30 18:56 | 50.07505 | 19.80395 | 800 ft | 14 kts | 15° |
| 2026-04-30 18:56 | 50.07607 | 19.80417 | 800 ft | 16 kts | 349° |
| 2026-04-30 18:56 | 50.07702 | 19.80384 | 800 ft | 10 kts | 348° |
| 2026-04-30 18:57 | 50.07745 | 19.80370 | 800 ft | 0 kts | 348° |
| 2026-04-30 19:00 | 50.07748 | 19.80369 | 800 ft | 2 kts | 348° |
| 2026-04-30 19:00 | 50.07781 | 19.80358 | 800 ft | 8 kts | 348° |
| 2026-04-30 19:00 | 50.07838 | 19.80338 | 800 ft | 0 kts | 347° |
| 2026-04-30 19:01 | 50.07870 | 19.80327 | 800 ft | 7 kts | 347° |
| 2026-04-30 19:01 | 50.07937 | 19.80304 | 800 ft | 13 kts | 347° |
| 2026-04-30 19:02 | 50.08011 | 19.80187 | 800 ft | 0 kts | 257° |
| 2026-04-30 19:03 | 50.07999 | 19.80106 | 801 ft | 33 kts | 258° |
| 2026-04-30 19:03 | 50.07688 | 19.77857 | 921 ft | 154 kts | 259° |
| 2026-04-30 19:04 | 50.07240 | 19.74701 | 2329 ft | 149 kts | 261° |
| 2026-04-30 19:04 | 50.06789 | 19.71501 | 3440 ft | 163 kts | 262° |
| 2026-04-30 19:05 | 50.06267 | 19.67693 | 4312 ft | 198 kts | 261° |
| 2026-04-30 19:05 | 50.05615 | 19.62974 | 5158 ft | 248 kts | 261° |
| 2026-04-30 19:06 | 50.04884 | 19.57392 | 6697 ft | 271 kts | 269° |
| 2026-04-30 19:06 | 50.05044 | 19.54460 | 7584 ft | 274 kts | 282° |
| 2026-04-30 19:06 | 50.05624 | 19.48518 | 9363 ft | 286 kts | 283° |
| 2026-04-30 19:07 | 50.06240 | 19.42245 | 10829 ft | 309 kts | 283° |
| 2026-04-30 19:07 | 50.06576 | 19.38819 | 11229 ft | 329 kts | 283° |
| 2026-04-30 19:08 | 50.07267 | 19.31591 | 12717 ft | 344 kts | 283° |
| 2026-04-30 19:08 | 50.07967 | 19.24098 | 14257 ft | 356 kts | 283° |
| 2026-04-30 19:08 | 50.08322 | 19.20260 | 14941 ft | 361 kts | 283° |
| 2026-04-30 19:09 | 50.09043 | 19.12440 | 16358 ft | 369 kts | 284° |
| 2026-04-30 19:09 | 50.09409 | 19.08461 | 17059 ft | 373 kts | 284° |
| 2026-04-30 19:09 | 50.09773 | 19.04502 | 17743 ft | 376 kts | 284° |
| 2026-04-30 19:10 | 50.10526 | 18.96358 | 19072 ft | 384 kts | 285° |
| 2026-04-30 19:10 | 50.11285 | 18.88015 | 20227 ft | 393 kts | 285° |
| 2026-04-30 19:11 | 50.11667 | 18.83777 | 20802 ft | 398 kts | 285° |
| 2026-04-30 19:11 | 50.12441 | 18.75139 | 21951 ft | 407 kts | 285° |
| 2026-04-30 19:11 | 50.12833 | 18.70741 | 22515 ft | 412 kts | 285° |
| 2026-04-30 19:12 | 50.13231 | 18.66291 | 23077 ft | 417 kts | 286° |
| 2026-04-30 19:12 | 50.13631 | 18.61792 | 23626 ft | 421 kts | 286° |
| 2026-04-30 19:12 | 50.14026 | 18.57308 | 24125 ft | 425 kts | 286° |
| 2026-04-30 19:13 | 50.14833 | 18.48089 | 25037 ft | 433 kts | 286° |
| 2026-04-30 19:13 | 50.15643 | 18.38690 | 25913 ft | 441 kts | 286° |
| 2026-04-30 19:13 | 50.16050 | 18.33931 | 26335 ft | 445 kts | 286° |
| 2026-04-30 19:14 | 50.16459 | 18.29127 | 26756 ft | 449 kts | 286° |
| 2026-04-30 19:14 | 50.16869 | 18.24283 | 27175 ft | 453 kts | 287° |
| 2026-04-30 19:14 | 50.17283 | 18.19393 | 27586 ft | 456 kts | 287° |
| 2026-04-30 19:14 | 50.17692 | 18.14529 | 27990 ft | 460 kts | 287° |
| 2026-04-30 19:15 | 50.18109 | 18.09561 | 28402 ft | 464 kts | 287° |
| 2026-04-30 19:15 | 50.18947 | 17.99494 | 29194 ft | 472 kts | 287° |
| 2026-04-30 19:15 | 50.19369 | 17.94402 | 29582 ft | 475 kts | 287° |
| 2026-04-30 19:16 | 50.19790 | 17.89270 | 29978 ft | 479 kts | 287° |
| 2026-04-30 19:16 | 50.20210 | 17.84095 | 30352 ft | 482 kts | 287° |
| 2026-04-30 19:16 | 50.20954 | 17.73596 | 31016 ft | 495 kts | 280° |
| 2026-04-30 19:17 | 50.20980 | 17.68194 | 31340 ft | 499 kts | 278° |
| 2026-04-30 19:17 | 50.20993 | 17.57317 | 32022 ft | 503 kts | 277° |
| 2026-04-30 19:17 | 50.20710 | 17.51898 | 32341 ft | 513 kts | 267° |
| 2026-04-30 19:18 | 50.19014 | 17.42994 | 32416 ft | 502 kts | 252° |
| 2026-04-30 19:18 | 50.17344 | 17.36382 | 32415 ft | 489 kts | 253° |
| 2026-04-30 19:19 | 50.14937 | 17.26515 | 32419 ft | 485 kts | 254° |
| 2026-04-30 19:19 | 50.11368 | 17.11747 | 32425 ft | 486 kts | 254° |
| 2026-04-30 19:20 | 50.08940 | 17.01910 | 32422 ft | 487 kts | 254° |
| 2026-04-30 19:21 | 50.05281 | 16.87249 | 32429 ft | 487 kts | 253° |
| 2026-04-30 19:22 | 50.00373 | 16.67653 | 32429 ft | 486 kts | 253° |
| 2026-04-30 19:23 | 49.92965 | 16.38331 | 32427 ft | 486 kts | 253° |
| 2026-04-30 19:24 | 49.89238 | 16.23801 | 32423 ft | 485 kts | 253° |
| 2026-04-30 19:25 | 49.82989 | 15.99527 | 32412 ft | 484 kts | 253° |
| 2026-04-30 19:26 | 49.77992 | 15.80293 | 32437 ft | 482 kts | 252° |
| 2026-04-30 19:27 | 49.74207 | 15.65880 | 32424 ft | 482 kts | 252° |
| 2026-04-30 19:28 | 49.70412 | 15.51486 | 32418 ft | 482 kts | 252° |
| 2026-04-30 19:29 | 49.65333 | 15.32389 | 32411 ft | 480 kts | 252° |
| 2026-04-30 19:30 | 49.60256 | 15.13417 | 32415 ft | 480 kts | 252° |
| 2026-04-30 19:31 | 49.55112 | 14.94389 | 32366 ft | 481 kts | 251° |
| 2026-04-30 19:31 | 49.50659 | 14.80515 | 32402 ft | 484 kts | 243° |
| 2026-04-30 19:32 | 49.47349 | 14.71582 | 32429 ft | 484 kts | 243° |
| 2026-04-30 19:32 | 49.44003 | 14.62603 | 32415 ft | 484 kts | 243° |
| 2026-04-30 19:33 | 49.40646 | 14.53640 | 32410 ft | 484 kts | 243° |
| 2026-04-30 19:33 | 49.37294 | 14.44685 | 32407 ft | 484 kts | 243° |
| 2026-04-30 19:34 | 49.33933 | 14.35736 | 32388 ft | 483 kts | 243° |
| 2026-04-30 19:35 | 49.28912 | 14.22456 | 32427 ft | 481 kts | 243° |
| 2026-04-30 19:35 | 49.25545 | 14.13612 | 32388 ft | 480 kts | 242° |
| 2026-04-30 19:35 | 49.23865 | 14.09206 | 32130 ft | 477 kts | 242° |
| 2026-04-30 19:36 | 49.22198 | 14.04829 | 31872 ft | 475 kts | 243° |
| 2026-04-30 19:36 | 49.20538 | 14.00473 | 31614 ft | 473 kts | 242° |
| 2026-04-30 19:36 | 49.17225 | 13.91811 | 31125 ft | 470 kts | 242° |
| 2026-04-30 19:37 | 49.15576 | 13.87509 | 30875 ft | 469 kts | 242° |
| 2026-04-30 19:37 | 49.13949 | 13.83277 | 30632 ft | 467 kts | 242° |
| 2026-04-30 19:37 | 49.12301 | 13.79008 | 30347 ft | 466 kts | 242° |
| 2026-04-30 19:37 | 49.10661 | 13.74762 | 30059 ft | 463 kts | 242° |
| 2026-04-30 19:38 | 49.09034 | 13.70550 | 29774 ft | 460 kts | 242° |
| 2026-04-30 19:38 | 49.07417 | 13.66365 | 29426 ft | 456 kts | 242° |
| 2026-04-30 19:38 | 49.05810 | 13.62214 | 28931 ft | 454 kts | 242° |
| 2026-04-30 19:38 | 49.04204 | 13.58074 | 28448 ft | 452 kts | 242° |
| 2026-04-30 19:39 | 49.02602 | 13.53963 | 28013 ft | 449 kts | 242° |
| 2026-04-30 19:39 | 49.01037 | 13.49890 | 27741 ft | 442 kts | 243° |
| 2026-04-30 19:39 | 48.99527 | 13.45801 | 27095 ft | 444 kts | 244° |
| 2026-04-30 19:39 | 48.98053 | 13.41682 | 26665 ft | 442 kts | 244° |
| 2026-04-30 19:40 | 48.96603 | 13.37577 | 26268 ft | 438 kts | 245° |
| 2026-04-30 19:40 | 48.95187 | 13.33567 | 25839 ft | 434 kts | 245° |
| 2026-04-30 19:40 | 48.93736 | 13.29494 | 25427 ft | 431 kts | 244° |
| 2026-04-30 19:40 | 48.92322 | 13.25561 | 25004 ft | 427 kts | 244° |
| 2026-04-30 19:41 | 48.90895 | 13.21630 | 24640 ft | 422 kts | 244° |
| 2026-04-30 19:41 | 48.89478 | 13.17751 | 24283 ft | 417 kts | 243° |
| 2026-04-30 19:41 | 48.88074 | 13.13915 | 23881 ft | 414 kts | 244° |
| 2026-04-30 19:41 | 48.86682 | 13.10106 | 23424 ft | 410 kts | 243° |
| 2026-04-30 19:42 | 48.85307 | 13.06340 | 22946 ft | 407 kts | 243° |
| 2026-04-30 19:42 | 48.83938 | 13.02593 | 22490 ft | 404 kts | 243° |
| 2026-04-30 19:42 | 48.82582 | 12.98890 | 22118 ft | 399 kts | 243° |
| 2026-04-30 19:42 | 48.81232 | 12.95210 | 21462 ft | 401 kts | 243° |
| 2026-04-30 19:43 | 48.79870 | 12.91493 | 20867 ft | 404 kts | 243° |
| 2026-04-30 19:43 | 48.78524 | 12.87822 | 20389 ft | 402 kts | 243° |
| 2026-04-30 19:43 | 48.77168 | 12.84132 | 19954 ft | 399 kts | 243° |
| 2026-04-30 19:44 | 48.74431 | 12.76723 | 19292 ft | 421 kts | 242° |
| 2026-04-30 19:44 | 48.72980 | 12.72806 | 18979 ft | 429 kts | 242° |
| 2026-04-30 19:44 | 48.71521 | 12.68872 | 18618 ft | 428 kts | 242° |
| 2026-04-30 19:44 | 48.70067 | 12.64948 | 18212 ft | 426 kts | 242° |
| 2026-04-30 19:45 | 48.68622 | 12.61048 | 17809 ft | 423 kts | 242° |
| 2026-04-30 19:45 | 48.67187 | 12.57184 | 17451 ft | 420 kts | 242° |
| 2026-04-30 19:45 | 48.65882 | 12.53241 | 17213 ft | 418 kts | 246° |
| 2026-04-30 19:45 | 48.64683 | 12.49242 | 16956 ft | 416 kts | 248° |
| 2026-04-30 19:46 | 48.63542 | 12.45295 | 16576 ft | 414 kts | 248° |
| 2026-04-30 19:46 | 48.62414 | 12.41315 | 16171 ft | 411 kts | 248° |
| 2026-04-30 19:46 | 48.61298 | 12.37361 | 15770 ft | 408 kts | 248° |
| 2026-04-30 19:46 | 48.60178 | 12.33433 | 15367 ft | 405 kts | 248° |
| 2026-04-30 19:47 | 48.59057 | 12.29550 | 14983 ft | 402 kts | 248° |
| 2026-04-30 19:47 | 48.58315 | 12.26998 | 14727 ft | 400 kts | 247° |
| 2026-04-30 19:47 | 48.56817 | 12.21878 | 14217 ft | 397 kts | 247° |
| 2026-04-30 19:47 | 48.55703 | 12.18084 | 13780 ft | 393 kts | 247° |
| 2026-04-30 19:48 | 48.54599 | 12.14324 | 13353 ft | 390 kts | 247° |
| 2026-04-30 19:48 | 48.53508 | 12.10603 | 12935 ft | 386 kts | 246° |
| 2026-04-30 19:48 | 48.52424 | 12.06912 | 12522 ft | 383 kts | 246° |
| 2026-04-30 19:48 | 48.51365 | 12.03304 | 12124 ft | 380 kts | 246° |
| 2026-04-30 19:49 | 48.50299 | 11.99677 | 11720 ft | 377 kts | 246° |
| 2026-04-30 19:49 | 48.48184 | 11.92509 | 11368 ft | 372 kts | 246° |
| 2026-04-30 19:49 | 48.47125 | 11.88944 | 11382 ft | 373 kts | 246° |
| 2026-04-30 19:50 | 48.46067 | 11.85384 | 11379 ft | 372 kts | 246° |
| 2026-04-30 19:50 | 48.45244 | 11.81699 | 11382 ft | 369 kts | 259° |
| 2026-04-30 19:50 | 48.44903 | 11.77977 | 11382 ft | 352 kts | 265° |
| 2026-04-30 19:50 | 48.44630 | 11.74332 | 11383 ft | 349 kts | 265° |
| 2026-04-30 19:51 | 48.44353 | 11.70710 | 11372 ft | 348 kts | 264° |
| 2026-04-30 19:51 | 48.44074 | 11.67131 | 11381 ft | 349 kts | 264° |
| 2026-04-30 19:51 | 48.43788 | 11.63514 | 11378 ft | 348 kts | 264° |
| 2026-04-30 19:51 | 48.43500 | 11.59887 | 11378 ft | 348 kts | 264° |
| 2026-04-30 19:52 | 48.43213 | 11.56267 | 11346 ft | 347 kts | 264° |
| 2026-04-30 19:52 | 48.42932 | 11.52739 | 11212 ft | 331 kts | 264° |
| 2026-04-30 19:52 | 48.42664 | 11.49387 | 11052 ft | 316 kts | 264° |
| 2026-04-30 19:52 | 48.42402 | 11.46143 | 10691 ft | 310 kts | 264° |
| 2026-04-30 19:53 | 48.42144 | 11.42937 | 10260 ft | 307 kts | 264° |
| 2026-04-30 19:53 | 48.41890 | 11.39768 | 9778 ft | 304 kts | 264° |
| 2026-04-30 19:53 | 48.41639 | 11.36664 | 9284 ft | 301 kts | 262° |
| 2026-04-30 19:53 | 48.40992 | 11.33709 | 8789 ft | 297 kts | 237° |
| 2026-04-30 19:54 | 48.39593 | 11.31522 | 8365 ft | 286 kts | 208° |
| 2026-04-30 19:54 | 48.37799 | 11.30619 | 8198 ft | 264 kts | 180° |
| 2026-04-30 19:54 | 48.36033 | 11.30857 | 7940 ft | 249 kts | 166° |
| 2026-04-30 19:54 | 48.34386 | 11.31502 | 7688 ft | 240 kts | 148° |
| 2026-04-30 19:55 | 48.33194 | 11.33104 | 7429 ft | 227 kts | 121° |
| 2026-04-30 19:55 | 48.32416 | 11.35153 | 7021 ft | 226 kts | 115° |
| 2026-04-30 19:55 | 48.31704 | 11.37253 | 6585 ft | 226 kts | 114° |
| 2026-04-30 19:55 | 48.31294 | 11.39498 | 6187 ft | 223 kts | 91° |
| 2026-04-30 19:56 | 48.31419 | 11.41766 | 5817 ft | 220 kts | 83° |
| 2026-04-30 19:56 | 48.31607 | 11.44031 | 5440 ft | 217 kts | 83° |
| 2026-04-30 19:56 | 48.31789 | 11.46271 | 5071 ft | 214 kts | 83° |
| 2026-04-30 19:56 | 48.31962 | 11.48417 | 4977 ft | 199 kts | 84° |
| 2026-04-30 19:57 | 48.32122 | 11.50426 | 4791 ft | 189 kts | 83° |
| 2026-04-30 19:57 | 48.32275 | 11.52350 | 4564 ft | 182 kts | 83° |
| 2026-04-30 19:57 | 48.32423 | 11.54206 | 4328 ft | 176 kts | 83° |
| 2026-04-30 19:57 | 48.32565 | 11.55998 | 4125 ft | 169 kts | 84° |
| 2026-04-30 19:58 | 48.32701 | 11.57714 | 3882 ft | 163 kts | 84° |
| 2026-04-30 19:58 | 48.32789 | 11.58823 | 3737 ft | 160 kts | 84° |
| 2026-04-30 19:58 | 48.32918 | 11.60449 | 3519 ft | 153 kts | 84° |
| 2026-04-30 19:58 | 48.33042 | 11.62020 | 3309 ft | 149 kts | 83° |
| 2026-04-30 19:59 | 48.33163 | 11.63523 | 3060 ft | 140 kts | 84° |
| 2026-04-30 19:59 | 48.33308 | 11.65400 | 2835 ft | 134 kts | 85° |
| 2026-04-30 19:59 | 48.33522 | 11.68160 | 2463 ft | 133 kts | 84° |
| 2026-04-30 20:00 | 48.33594 | 11.69094 | 2341 ft | 133 kts | 83° |
| 2026-04-30 20:00 | 48.33704 | 11.70476 | 2167 ft | 133 kts | 84° |
| 2026-04-30 20:00 | 48.33812 | 11.71852 | 1963 ft | 133 kts | 83° |
| 2026-04-30 20:00 | 48.33918 | 11.73206 | 1786 ft | 132 kts | 82° |
| 2026-04-30 20:01 | 48.34138 | 11.75931 | 1487 ft | 124 kts | 82° |
| 2026-04-30 20:01 | 48.34216 | 11.77014 | 1481 ft | 80 kts | 83° |
| 2026-04-30 20:01 | 48.34269 | 11.77692 | 1485 ft | 56 kts | 83° |
| 2026-04-30 20:02 | 48.34426 | 11.78449 | 1483 ft | 27 kts | 53° |
| 2026-04-30 20:02 | 48.34532 | 11.78664 | 1481 ft | 24 kts | 54° |
| 2026-04-30 20:03 | 48.34648 | 11.79116 | 1485 ft | 24 kts | 83° |
| 2026-04-30 20:03 | 48.34669 | 11.79364 | 1479 ft | 24 kts | 83° |
| 2026-04-30 20:03 | 48.34701 | 11.79544 | 1482 ft | 15 kts | 36° |
| 2026-04-30 20:03 | 48.34802 | 11.79557 | 1485 ft | 15 kts | 7° |
| 2026-04-30 20:04 | 48.34875 | 11.79554 | 1478 ft | 0 kts | 353° |
| 2026-04-30 20:04 | 48.34876 | 11.79554 | 1478 ft | 0 kts | 353° |
| 2026-04-30 20:05 | 48.34919 | 11.79546 | 1486 ft | 8 kts | 352° |
| 2026-04-30 20:05 | 48.34949 | 11.79541 | 1485 ft | 1 kts | 355° |
| 2026-04-30 20:05 | 48.35002 | 11.79532 | 1481 ft | 9 kts | 353° |
| 2026-04-30 20:06 | 48.35074 | 11.79519 | 1485 ft | 12 kts | 352° |
| 2026-04-30 20:06 | 48.35162 | 11.79500 | 1485 ft | 10 kts | 332° |
| 2026-04-30 20:06 | 48.35165 | 11.79406 | 1485 ft | 9 kts | 263° |
| 2026-04-30 20:06 | 48.35162 | 11.79364 | 1485 ft | 0 kts | 264° |